createdAt,value
2019-04-14T00:01:59.281Z,13.03
2019-04-14T00:04:48.730Z,11.93
2019-04-14T00:08:06.886Z,13.30
2019-04-14T00:10:46.450Z,15.23
2019-04-14T00:13:23.910Z,9.25
2019-04-14T00:16:01.642Z,12.15
2019-04-14T00:18:38.974Z,12.73
2019-04-14T00:21:15.687Z,12.82
2019-04-14T00:23:54.382Z,13.28
2019-04-14T00:26:33.621Z,13.80
2019-04-14T00:29:10.906Z,9.73
2019-04-14T00:31:50.715Z,11.18
2019-04-14T00:34:44.190Z,11.78
2019-04-14T00:37:31.495Z,10.48
2019-04-14T00:40:31.579Z,10.10
2019-04-14T00:43:26.798Z,12.30
2019-04-14T00:46:10.017Z,12.73
2019-04-14T00:48:49.646Z,12.55
2019-04-14T00:51:27.147Z,12.58
2019-04-14T00:54:04.388Z,9.28
2019-04-14T00:56:41.632Z,12.35
2019-04-14T00:59:20.080Z,11.78
2019-04-14T01:01:59.090Z,9.50
2019-04-14T01:04:38.224Z,11.55
2019-04-14T01:07:15.626Z,13.15
2019-04-14T01:09:55.370Z,12.95
2019-04-14T01:12:32.585Z,8.53
2019-04-14T01:15:11.507Z,9.53
2019-04-14T01:17:48.834Z,9.85
2019-04-14T01:20:27.501Z,11.60
2019-04-14T01:23:04.762Z,8.95
2019-04-14T01:25:41.730Z,8.55
2019-04-14T01:28:20.110Z,9.58
2019-04-14T01:30:59.027Z,9.33
2019-04-14T01:33:36.466Z,9.40
2019-04-14T01:36:14.768Z,7.67
2019-04-14T01:38:51.966Z,10.60
2019-04-14T01:41:30.508Z,10.85
2019-04-14T01:44:07.760Z,10.70
2019-04-14T01:46:45.596Z,8.53
2019-04-14T01:49:22.845Z,8.88
2019-04-14T01:52:19.071Z,8.10
2019-04-14T01:55:13.959Z,12.45
2019-04-14T01:58:03.410Z,10.95
2019-04-14T02:01:06.164Z,8.93
2019-04-14T02:03:45.459Z,13.40
2019-04-14T02:06:24.446Z,18.37
2019-04-14T02:09:01.304Z,17.25
2019-04-14T02:11:40.682Z,8.88
2019-04-14T02:14:21.186Z,11.53
2019-04-14T02:17:02.497Z,12.60
2019-04-14T02:19:39.297Z,9.98
2019-04-14T02:22:18.131Z,9.93
2019-04-14T02:24:57.088Z,9.90
2019-04-14T02:27:34.357Z,10.58
2019-04-14T02:30:17.392Z,8.28
2019-04-14T02:38:40.925Z,12.47
2019-04-14T02:41:27.026Z,10.20
2019-04-14T02:43:57.975Z,9.85
2019-04-14T02:46:38.308Z,14.68
2019-04-14T02:49:12.804Z,12.15
2019-04-14T02:51:53.358Z,12.93
2019-04-14T02:54:36.061Z,12.58
2019-04-14T02:57:15.093Z,11.95
2019-04-14T02:59:56.251Z,10.53
2019-04-14T03:02:30.323Z,12.40
2019-04-14T03:05:01.950Z,8.30
2019-04-14T03:07:46.248Z,11.00
2019-04-14T03:10:27.637Z,9.35
2019-04-14T03:13:05.520Z,9.68
2019-04-14T03:15:47.877Z,7.80
2019-04-14T03:18:41.051Z,11.53
2019-04-14T03:21:34.596Z,10.78
2019-04-14T03:24:31.765Z,11.03
2019-04-14T03:27:22.870Z,9.78
2019-04-14T03:30:46.003Z,8.80
2019-04-14T03:33:18.347Z,9.03
2019-04-14T03:38:20.559Z,10.55
2019-04-14T03:40:58.649Z,9.10
2019-04-14T03:43:30.292Z,8.08
2019-04-14T03:49:07.434Z,7.58
2019-04-14T03:51:37.073Z,8.60
2019-04-14T03:54:03.126Z,8.03
2019-04-14T03:57:04.038Z,9.53
2019-04-14T03:59:43.742Z,8.58
2019-04-14T04:02:22.534Z,6.28
2019-04-14T04:04:59.931Z,7.20
2019-04-14T04:07:37.312Z,6.53
2019-04-14T04:10:19.132Z,6.30
2019-04-14T04:12:57.606Z,6.45
2019-04-14T04:15:36.486Z,8.90
2019-04-14T04:18:24.182Z,6.85
2019-04-14T04:21:23.282Z,7.50
2019-04-14T04:24:13.373Z,7.17
2019-04-14T04:27:11.813Z,5.65
2019-04-14T04:30:10.306Z,7.85
2019-04-14T04:33:15.574Z,6.60
2019-04-14T04:35:58.406Z,5.72
2019-04-14T04:38:51.401Z,5.67
2019-04-14T04:41:29.620Z,6.10
2019-04-14T04:44:07.204Z,6.92
2019-04-14T04:46:45.969Z,5.95
2019-04-14T04:49:27.421Z,7.30
2019-04-14T04:52:03.979Z,9.25
2019-04-14T04:54:41.323Z,5.50
2019-04-14T04:57:18.386Z,7.12
2019-04-14T04:59:56.157Z,5.53
2019-04-14T05:02:33.262Z,5.75
2019-04-14T05:05:28.216Z,6.00
2019-04-14T05:08:05.202Z,8.08
2019-04-14T05:10:48.190Z,7.83
2019-04-14T05:13:29.683Z,7.00
2019-04-14T05:16:08.503Z,6.20
2019-04-14T05:18:46.348Z,5.70
2019-04-14T05:21:23.970Z,7.30
2019-04-14T05:24:00.881Z,6.70
2019-04-14T05:26:42.317Z,6.35
2019-04-14T05:29:20.999Z,7.42
2019-04-14T05:31:58.340Z,6.58
2019-04-14T05:34:36.699Z,6.72
2019-04-14T05:37:14.499Z,11.12
2019-04-14T05:39:52.722Z,15.68
2019-04-14T05:42:31.903Z,6.87
2019-04-14T05:45:09.049Z,8.78
2019-04-14T05:47:46.276Z,6.42
2019-04-14T05:50:24.911Z,8.68
2019-04-14T05:53:04.361Z,8.75
2019-04-14T05:55:43.755Z,9.48
2019-04-14T05:58:21.361Z,9.15
2019-04-14T06:00:58.752Z,8.50
2019-04-14T06:03:36.498Z,6.90
2019-04-14T06:06:13.250Z,10.43
2019-04-14T06:08:49.553Z,6.80
2019-04-14T06:11:26.691Z,6.97
2019-04-14T06:14:04.470Z,8.25
2019-04-14T06:16:42.321Z,9.75
2019-04-14T06:19:22.008Z,8.18
2019-04-14T06:21:59.531Z,7.37
2019-04-14T06:24:38.059Z,7.50
2019-04-14T06:27:14.956Z,7.83
2019-04-14T06:29:54.358Z,6.80
2019-04-14T06:32:41.699Z,6.55
2019-04-14T06:35:39.829Z,8.98
2019-04-14T06:38:23.592Z,6.30
2019-04-14T06:41:04.310Z,10.28
2019-04-14T06:43:48.680Z,8.25
2019-04-14T06:46:20.614Z,9.03
2019-04-14T06:48:57.437Z,8.40
2019-04-14T06:51:34.539Z,7.45
2019-04-14T06:54:12.082Z,8.83
2019-04-14T06:56:50.185Z,7.33
2019-04-14T06:59:26.943Z,9.70
2019-04-14T07:02:04.310Z,6.62
2019-04-14T07:04:41.255Z,8.15
2019-04-14T07:07:18.488Z,7.58
2019-04-14T07:09:55.341Z,6.37
2019-04-14T07:12:32.545Z,6.67
2019-04-14T07:15:10.269Z,10.93
2019-04-14T07:17:47.677Z,7.58
2019-04-14T07:20:24.721Z,8.83
2019-04-14T07:23:01.940Z,6.75
2019-04-14T07:25:39.451Z,8.95
2019-04-14T07:28:18.823Z,9.80
2019-04-14T07:31:13.986Z,9.28
2019-04-14T07:34:08.457Z,9.23
2019-04-14T07:37:14.096Z,8.70
2019-04-14T07:39:58.109Z,6.40
2019-04-14T07:42:53.460Z,5.75
2019-04-14T07:45:47.458Z,6.70
2019-04-14T07:48:30.481Z,6.15
2019-04-14T07:51:25.114Z,7.17
2019-04-14T07:54:23.827Z,7.22
2019-04-14T07:57:25.731Z,6.47
2019-04-14T08:00:12.278Z,7.60
2019-04-14T08:03:09.203Z,6.37
2019-04-14T08:05:46.373Z,7.03
2019-04-14T08:08:23.573Z,5.92
2019-04-14T08:11:01.562Z,5.60
2019-04-14T08:13:39.589Z,5.70
2019-04-14T08:16:17.307Z,6.10
2019-04-14T08:18:54.384Z,5.30
2019-04-14T08:21:31.692Z,7.10
2019-04-14T08:24:08.995Z,7.37
2019-04-14T08:26:46.122Z,5.20
2019-04-14T08:29:24.252Z,6.75
2019-04-14T08:32:03.278Z,5.67
2019-04-14T08:34:40.349Z,7.45
2019-04-14T08:37:17.615Z,6.15
2019-04-14T08:39:55.100Z,5.70
2019-04-14T08:42:50.157Z,9.33
2019-04-14T08:45:44.621Z,6.95
2019-04-14T08:48:46.617Z,6.67
2019-04-14T08:51:35.628Z,5.72
2019-04-14T08:54:49.269Z,6.22
2019-04-14T08:57:32.094Z,5.67
2019-04-14T09:00:24.654Z,6.65
2019-04-14T09:03:20.047Z,6.05
2019-04-14T09:06:07.022Z,5.95
2019-04-14T09:09:12.151Z,7.83
2019-04-14T09:12:14.582Z,7.10
2019-04-14T09:14:40.592Z,7.20
2019-04-14T09:17:19.076Z,7.12
2019-04-14T09:19:57.915Z,10.35
2019-04-14T09:22:34.904Z,7.45
2019-04-14T09:25:12.192Z,10.60
2019-04-14T09:27:49.689Z,7.35
2019-04-14T09:30:26.942Z,9.05
2019-04-14T09:33:05.402Z,9.75
2019-04-14T09:35:42.370Z,7.00
2019-04-14T09:38:20.074Z,7.30
2019-04-14T09:40:58.153Z,7.55
2019-04-14T09:43:35.272Z,7.87
2019-04-14T09:46:12.657Z,8.70
2019-04-14T09:48:53.064Z,7.80
2019-04-14T09:51:29.775Z,8.68
2019-04-14T09:54:06.932Z,7.75
2019-04-14T09:56:46.529Z,9.05
2019-04-14T09:59:24.232Z,7.58
2019-04-14T10:02:02.863Z,9.30
2019-04-14T10:04:40.422Z,8.10
2019-04-14T10:07:18.228Z,8.48
2019-04-14T10:09:56.207Z,9.05
2019-04-14T10:12:35.373Z,8.35
2019-04-14T10:15:12.491Z,9.43
2019-04-14T10:17:49.682Z,7.90
2019-04-14T10:20:29.027Z,7.28
2019-04-14T10:23:06.077Z,9.20
2019-04-14T10:25:42.581Z,8.30
2019-04-14T10:28:19.483Z,6.30
2019-04-14T10:30:57.938Z,7.25
2019-04-14T10:33:35.143Z,9.15
2019-04-14T10:36:13.420Z,7.15
2019-04-14T10:38:50.856Z,7.20
2019-04-14T10:41:27.980Z,9.78
2019-04-14T10:44:05.285Z,7.83
2019-04-14T10:46:42.456Z,7.40
2019-04-14T11:11:45.268Z,11.63
2019-04-14T11:14:23.696Z,6.75
2019-04-14T11:17:00.635Z,7.67
2019-04-14T11:19:37.953Z,7.40
2019-04-14T11:22:15.623Z,8.05
2019-04-14T11:24:52.536Z,8.45
2019-04-14T11:27:30.141Z,8.33
2019-04-14T11:30:09.935Z,8.78
2019-04-14T11:33:15.073Z,10.90
2019-04-14T11:36:10.112Z,9.55
2019-04-14T11:38:53.504Z,8.38
2019-04-14T11:45:57.611Z,7.40
2019-04-14T11:48:38.528Z,10.40
2019-04-14T11:51:21.047Z,10.55
2019-04-14T12:50:19.286Z,8.88
2019-04-14T12:52:57.517Z,12.30
2019-04-14T12:55:34.466Z,10.75
2019-04-14T12:58:12.285Z,11.80
2019-04-14T13:00:53.542Z,8.70
2019-04-14T13:03:31.502Z,11.78
2019-04-14T13:06:08.974Z,9.48
2019-04-14T13:08:46.428Z,11.15
2019-04-14T13:11:24.572Z,10.53
2019-04-14T13:14:01.821Z,8.50
2019-04-14T13:16:39.317Z,14.53
2019-04-14T13:19:16.806Z,10.50
2019-04-14T13:21:54.721Z,13.18
2019-04-14T13:24:32.698Z,8.30
2019-04-14T13:27:09.914Z,10.50
2019-04-14T13:29:47.307Z,9.65
2019-04-14T13:32:35.416Z,10.43
2019-04-14T13:35:03.943Z,8.73
2019-04-14T13:37:40.658Z,10.68
2019-04-14T13:40:17.576Z,11.70
2019-04-14T13:42:55.775Z,8.48
2019-04-14T13:45:32.696Z,9.10
2019-04-14T13:48:10.096Z,9.00
2019-04-14T13:50:47.081Z,8.05
2019-04-14T13:53:24.861Z,8.45
2019-04-14T13:56:03.073Z,7.97
2019-04-14T13:58:40.943Z,9.48
2019-04-14T14:01:17.996Z,7.62
2019-04-14T14:03:56.152Z,8.65
2019-04-14T14:06:33.095Z,9.83
2019-04-14T14:09:13.940Z,7.58
2019-04-14T14:12:25.135Z,9.35
2019-04-14T14:15:21.356Z,7.58
2019-04-14T14:18:26.758Z,12.98
2019-04-14T14:21:22.073Z,8.80
2019-04-14T14:24:11.624Z,10.60
2019-04-14T14:26:52.190Z,9.13
2019-04-14T14:29:29.198Z,13.10
2019-04-14T14:32:07.850Z,13.03
2019-04-14T14:34:44.261Z,8.65
2019-04-14T14:37:21.966Z,10.70
2019-04-14T14:39:58.999Z,8.50
2019-04-14T14:42:36.568Z,8.25
2019-04-14T14:45:24.071Z,9.53
2019-04-14T14:48:22.183Z,8.95
2019-04-14T14:51:07.651Z,9.98
2019-04-14T14:53:45.391Z,11.10
2019-04-14T14:56:22.314Z,9.68
2019-04-14T14:59:00.578Z,12.47
2019-04-14T15:01:37.833Z,8.70
2019-04-14T15:04:15.550Z,12.20
2019-04-14T15:06:52.444Z,9.95
2019-04-14T15:09:30.954Z,8.78
2019-04-14T15:12:08.198Z,9.68
2019-04-14T15:14:45.372Z,9.65
2019-04-14T15:17:22.312Z,8.43
2019-04-14T15:20:00.238Z,9.38
2019-04-14T15:22:37.764Z,8.83
2019-04-14T15:25:15.160Z,9.65
2019-04-14T15:27:54.751Z,10.82
2019-04-14T15:30:34.323Z,8.03
2019-04-14T15:33:11.687Z,7.83
2019-04-14T15:35:48.818Z,8.90
2019-04-14T15:38:25.936Z,7.60
2019-04-14T15:41:03.436Z,7.83
2019-04-14T15:43:40.677Z,7.47
2019-04-14T15:46:18.210Z,9.38
2019-04-14T15:48:55.504Z,13.08
2019-04-14T15:51:33.808Z,8.38
2019-04-14T15:54:10.857Z,8.15
2019-04-14T15:57:05.573Z,11.80
2019-04-14T15:59:59.950Z,9.93
2019-04-14T16:02:46.942Z,10.03
2019-04-14T16:05:47.630Z,8.15
2019-04-14T16:08:38.102Z,9.65
2019-04-14T16:11:30.378Z,9.15
2019-04-14T16:14:31.836Z,11.10
2019-04-14T16:17:25.385Z,8.63
2019-04-14T16:20:07.670Z,7.33
2019-04-14T16:22:44.911Z,8.50
2019-04-14T16:25:23.666Z,9.25
2019-04-14T16:28:13.388Z,9.80
2019-04-14T16:31:06.904Z,9.18
2019-04-14T16:34:21.270Z,9.55
2019-04-14T16:36:58.701Z,8.93
2019-04-14T16:39:35.683Z,10.38
2019-04-14T16:42:13.713Z,9.58
2019-04-14T16:44:50.852Z,10.95
2019-04-14T16:47:28.701Z,12.03
2019-04-14T16:50:05.896Z,10.93
2019-04-14T16:53:03.409Z,9.08
2019-04-14T16:55:47.766Z,10.25
2019-04-14T16:58:38.511Z,10.82
2019-04-14T17:01:23.336Z,10.53
2019-04-14T17:04:00.975Z,8.10
2019-04-14T17:06:39.319Z,7.60
2019-04-14T17:09:17.941Z,9.63
2019-04-14T17:11:55.477Z,9.48
2019-04-14T17:14:38.378Z,9.05
2019-04-14T17:17:26.959Z,10.95
2019-04-14T17:20:23.494Z,8.03
2019-04-14T17:23:13.847Z,9.48
2019-04-14T17:26:05.121Z,8.18
2019-04-14T17:29:13.152Z,12.05
2019-04-14T17:32:12.266Z,9.80
2019-04-14T17:34:55.875Z,8.70
2019-04-14T17:38:03.671Z,8.85
2019-04-14T17:40:50.148Z,9.80
2019-04-14T17:43:42.102Z,8.90
2019-04-14T17:46:49.647Z,9.33
2019-04-14T17:49:42.956Z,9.28
2019-04-14T17:52:37.529Z,10.70
2019-04-14T17:55:24.723Z,8.60
2019-04-14T17:58:15.940Z,9.68
2019-04-14T18:01:24.001Z,11.43
2019-04-14T18:04:20.891Z,14.28
2019-04-14T18:07:07.779Z,9.68
2019-04-14T18:10:09.478Z,9.05
2019-04-14T18:13:05.083Z,9.07
2019-04-14T18:15:53.560Z,8.65
2019-04-14T18:18:42.442Z,9.13
2019-04-14T18:21:19.857Z,10.23
2019-04-14T18:23:57.316Z,9.30
2019-04-14T18:26:34.752Z,8.85
2019-04-14T18:29:50.740Z,12.98
2019-04-14T18:32:42.183Z,9.73
2019-04-14T18:35:31.149Z,11.05
2019-04-14T18:38:36.731Z,10.98
2019-04-14T18:41:33.874Z,8.98
2019-04-14T18:44:25.956Z,9.60
2019-04-14T18:47:11.174Z,11.20
2019-04-14T18:50:22.008Z,9.93
2019-04-14T18:53:06.146Z,9.05
2019-04-14T18:56:02.399Z,10.05
2019-04-14T18:58:57.977Z,12.10
2019-04-14T19:01:39.477Z,12.90
2019-04-14T19:04:17.392Z,9.65
2019-04-14T19:06:54.831Z,10.53
2019-04-14T19:09:35.441Z,9.88
2019-04-14T19:12:45.962Z,10.98
2019-04-14T19:15:38.814Z,10.32
2019-04-14T19:18:40.158Z,12.00
2019-04-14T19:21:20.236Z,12.05
2019-04-14T19:23:57.598Z,12.30
2019-04-14T19:26:36.824Z,10.55
2019-04-14T19:29:14.393Z,12.37
2019-04-14T19:31:51.903Z,10.23
2019-04-14T19:34:29.284Z,10.82
2019-04-14T19:37:07.237Z,10.00
2019-04-14T19:39:45.776Z,10.50
2019-04-14T19:42:23.852Z,13.05
2019-04-14T19:45:01.186Z,11.35
2019-04-14T19:47:39.625Z,9.38
2019-04-14T19:50:16.547Z,9.53
2019-04-14T19:52:53.983Z,9.00
2019-04-14T19:55:31.302Z,9.70
2019-04-14T19:58:09.923Z,10.28
2019-04-14T20:00:48.192Z,9.98
2019-04-14T20:03:25.952Z,9.70
2019-04-14T20:06:03.008Z,12.00
2019-04-14T20:08:40.591Z,11.80
2019-04-14T20:11:18.409Z,10.28
2019-04-14T20:13:56.099Z,10.45
2019-04-14T20:16:42.710Z,9.43
2019-04-14T20:19:39.542Z,15.38
2019-04-14T20:22:22.407Z,9.63
2019-04-14T20:25:33.532Z,13.20
2019-04-14T20:28:16.901Z,10.03
2019-04-14T20:31:09.695Z,10.18
2019-04-14T20:33:47.686Z,10.10
2019-04-14T20:36:24.985Z,11.05
2019-04-14T20:39:03.060Z,12.95
2019-04-14T20:41:43.074Z,11.38
2019-04-14T20:44:20.095Z,11.03
2019-04-14T20:46:58.531Z,11.03
2019-04-14T20:49:36.169Z,10.90
2019-04-14T20:52:13.799Z,12.18
2019-04-14T20:54:50.879Z,11.33
2019-04-14T20:57:27.986Z,13.90
2019-04-14T21:00:05.731Z,12.70
2019-04-14T21:03:09.447Z,13.35
2019-04-14T21:06:10.974Z,11.15
2019-04-14T21:09:04.170Z,13.13
2019-04-14T21:12:01.343Z,12.07
2019-04-14T21:15:07.111Z,10.50
2019-04-14T21:18:03.031Z,11.88
2019-04-14T21:20:49.214Z,17.30
2019-04-14T21:23:43.492Z,11.43
2019-04-14T21:26:34.022Z,11.75
2019-04-14T21:29:16.731Z,12.90
2019-04-14T21:31:56.821Z,10.72
2019-04-14T21:34:56.916Z,13.00
2019-04-14T21:37:51.734Z,19.95
2019-04-14T21:40:48.224Z,16.70
2019-04-14T21:43:25.467Z,13.50
2019-04-14T21:46:03.731Z,10.48
2019-04-14T21:48:41.454Z,10.65
2019-04-14T21:51:18.755Z,10.08
2019-04-14T21:53:55.959Z,11.43
2019-04-14T21:56:35.318Z,11.48
2019-04-14T21:59:19.259Z,9.45
2019-04-14T22:02:34.162Z,9.40
2019-04-14T22:05:23.009Z,10.30
2019-04-14T22:08:10.516Z,12.25
2019-04-14T22:11:00.398Z,12.58
2019-04-14T22:13:38.420Z,9.40
2019-04-14T22:16:16.208Z,11.48
2019-04-14T22:18:53.526Z,11.22
2019-04-14T22:21:31.736Z,10.00
2019-04-14T22:24:08.851Z,9.05
2019-04-14T22:26:46.584Z,11.53
2019-04-14T22:29:23.799Z,11.63
2019-04-14T22:32:01.165Z,11.53
2019-04-14T22:34:38.785Z,11.83
2019-04-14T22:37:15.997Z,12.00
2019-04-14T22:39:52.696Z,11.40
2019-04-14T22:42:29.902Z,10.53
2019-04-14T22:45:08.081Z,11.20
2019-04-14T22:47:46.423Z,11.57
2019-04-14T22:50:24.133Z,11.05
2019-04-14T22:53:02.435Z,12.65
2019-04-14T22:55:39.616Z,12.60
2019-04-14T22:58:16.074Z,10.38
2019-04-14T23:00:57.213Z,10.55
2019-04-14T23:03:55.104Z,12.13
2019-04-14T23:06:51.639Z,11.33
2019-04-14T23:09:33.072Z,11.50
2019-04-14T23:12:37.834Z,11.48
2019-04-14T23:15:26.670Z,11.03
2019-04-14T23:18:12.502Z,12.03
2019-04-14T23:21:26.185Z,12.58
2019-04-14T23:24:23.802Z,12.15
2019-04-14T23:27:01.605Z,12.88
2019-04-14T23:29:39.436Z,10.98
2019-04-14T23:32:17.738Z,11.45
2019-04-14T23:34:54.581Z,14.43
2019-04-14T23:37:32.370Z,14.60
2019-04-14T23:40:10.128Z,11.85
2019-04-14T23:42:47.268Z,11.08
2019-04-14T23:45:25.399Z,13.15
2019-04-14T23:48:03.587Z,11.85
2019-04-14T23:50:41.977Z,11.93
2019-04-14T23:53:19.116Z,12.93
2019-04-14T23:55:56.232Z,10.75
2019-04-14T23:58:33.787Z,10.90
